createdAt,value
2018-03-04T00:01:06.465Z,11.40
2018-03-04T00:03:39.739Z,12.00
2018-03-04T00:06:12.998Z,12.63
2018-03-04T00:08:46.273Z,11.13
2018-03-04T00:11:20.289Z,13.30
2018-03-04T00:13:54.341Z,12.60
2018-03-04T01:47:36.726Z,9.53
2018-03-04T01:50:09.998Z,10.67
2018-03-04T01:52:43.248Z,12.17
2018-03-04T01:55:17.285Z,11.17
2018-03-04T01:57:50.535Z,12.53
2018-03-04T03:31:32.631Z,8.30
2018-03-04T03:34:05.921Z,10.33
2018-03-04T03:36:39.174Z,10.00
2018-03-04T03:39:12.453Z,8.73
2018-03-04T03:41:45.714Z,10.17
2018-03-04T03:44:18.993Z,10.43
2018-03-04T04:45:53.270Z,8.57
2018-03-04T04:48:27.284Z,10.63
2018-03-04T04:51:01.345Z,9.57
2018-03-04T04:53:34.597Z,13.83
2018-03-04T04:56:07.878Z,12.37
2018-03-04T04:58:41.129Z,11.90
2018-03-04T06:03:05.243Z,13.63
2018-03-04T06:05:38.517Z,12.80
2018-03-04T06:08:11.770Z,13.17
2018-03-04T06:10:45.069Z,16.73
2018-03-04T06:13:18.324Z,12.63
2018-03-04T06:15:51.609Z,10.43
2018-03-04T06:18:24.857Z,12.03
2018-03-04T06:20:58.898Z,9.73
2018-03-04T06:23:32.153Z,9.57
2018-03-04T06:26:05.425Z,9.67
2018-03-04T06:28:38.693Z,8.33
2018-03-04T06:31:11.943Z,9.37
2018-03-04T06:33:45.982Z,9.80
2018-03-04T06:36:19.244Z,10.70
2018-03-04T06:38:52.514Z,9.97
2018-03-04T06:41:25.777Z,9.93
2018-03-04T06:43:59.049Z,10.03
2018-03-04T06:46:32.303Z,11.10
2018-03-04T06:49:05.580Z,9.30
2018-03-04T06:51:38.833Z,15.90
2018-03-04T06:54:12.862Z,13.20
2018-03-04T06:56:46.112Z,12.03
2018-03-04T06:59:20.168Z,12.70
2018-03-04T07:01:53.434Z,12.57
2018-03-04T07:04:27.464Z,9.00
2018-03-04T07:07:00.736Z,9.87
2018-03-04T07:09:34.787Z,10.47
2018-03-04T07:12:08.046Z,10.60
2018-03-04T07:14:41.327Z,13.17
2018-03-04T07:17:15.367Z,14.00
2018-03-04T07:19:48.641Z,13.90
2018-03-04T07:22:22.674Z,13.43
2018-03-04T07:24:55.967Z,14.40
2018-03-04T07:27:29.238Z,12.63
2018-03-04T07:30:03.258Z,13.60
2018-03-04T07:32:37.322Z,12.83
2018-03-04T07:35:10.600Z,13.07
2018-03-04T07:37:43.881Z,14.40
2018-03-04T07:40:17.163Z,12.60
2018-03-04T07:42:50.442Z,13.93
2018-03-04T07:45:23.717Z,12.33
2018-03-04T07:47:57.169Z,13.07
2018-03-04T07:50:30.423Z,13.10
2018-03-04T07:53:03.717Z,13.07
2018-03-04T07:55:37.740Z,12.27
2018-03-04T07:58:11.029Z,18.57
2018-03-04T08:00:44.350Z,14.17
2018-03-04T08:03:17.637Z,13.00
2018-03-04T08:05:50.908Z,13.13
2018-03-04T08:08:24.157Z,13.50
2018-03-04T08:10:57.439Z,13.23
2018-03-04T08:13:30.689Z,11.73
2018-03-04T08:16:03.974Z,13.07
2018-03-04T08:18:37.291Z,10.60
2018-03-04T08:21:10.546Z,12.10
2018-03-04T08:23:43.855Z,11.10
2018-03-04T08:26:35.085Z,10.97
2018-03-04T08:29:09.158Z,9.47
2018-03-04T08:31:43.662Z,11.53
2018-03-04T08:34:17.190Z,11.60
2018-03-04T08:36:51.543Z,10.27
2018-03-04T08:39:25.616Z,9.83
2018-03-04T08:41:58.914Z,10.03
2018-03-04T08:44:32.228Z,8.83
2018-03-04T08:47:05.514Z,9.53
2018-03-04T08:49:38.831Z,9.10
2018-03-04T08:52:12.905Z,11.60
2018-03-04T08:54:46.200Z,8.97
2018-03-04T08:57:19.513Z,8.97
2018-03-04T08:59:52.844Z,10.27
2018-03-04T09:02:26.166Z,8.93
2018-03-04T09:04:59.511Z,9.00
2018-03-04T09:07:32.815Z,10.37
2018-03-04T09:32:05.977Z,13.60
2018-03-04T09:34:39.303Z,12.83
2018-03-04T09:37:12.638Z,11.93
2018-03-04T09:39:45.913Z,14.57
2018-03-04T09:42:19.997Z,12.83
2018-03-04T09:44:53.318Z,15.27
2018-03-04T09:47:28.071Z,13.17
2018-03-04T09:50:02.129Z,12.07
2018-03-04T09:52:35.473Z,10.07
2018-03-04T09:55:08.756Z,9.03
2018-03-04T09:57:42.121Z,8.87
2018-03-04T10:00:15.389Z,7.47
2018-03-04T10:02:48.691Z,6.80
2018-03-04T10:05:21.946Z,5.20
2018-03-04T10:07:55.997Z,6.40
2018-03-04T10:10:29.333Z,10.30
2018-03-04T10:13:02.629Z,9.97
2018-03-04T10:15:35.939Z,17.83
2018-03-04T10:18:09.213Z,12.37
2018-03-04T10:20:42.548Z,14.63
2018-03-04T10:23:15.844Z,11.60
2018-03-04T10:25:49.910Z,10.40
2018-03-04T10:28:23.207Z,10.73
2018-03-04T10:30:56.531Z,12.57
2018-03-04T10:33:30.630Z,12.80
2018-03-04T10:36:03.965Z,12.50
2018-03-04T10:38:37.285Z,11.50
2018-03-04T10:41:10.591Z,10.50
2018-03-04T10:43:43.875Z,8.30
2018-03-04T10:46:17.113Z,9.87
2018-03-04T10:48:51.156Z,7.57
2018-03-04T10:51:24.408Z,9.83
2018-03-04T10:53:57.704Z,8.17
2018-03-04T10:56:30.980Z,10.40
2018-03-04T10:59:04.278Z,13.20
2018-03-04T11:01:41.461Z,12.77
2018-03-04T11:04:14.750Z,9.27
2018-03-04T11:06:48.020Z,11.87
2018-03-04T11:09:21.299Z,9.47
2018-03-04T11:11:54.556Z,13.43
2018-03-04T11:14:27.843Z,10.53
2018-03-04T11:17:01.136Z,7.60
2018-03-04T11:19:34.385Z,7.40
2018-03-04T11:22:07.665Z,9.63
2018-03-04T11:24:41.161Z,12.47
2018-03-04T11:27:14.468Z,13.30
2018-03-04T11:29:47.745Z,15.00
2018-03-04T11:32:21.781Z,15.10
2018-03-04T11:34:55.030Z,14.10
2018-03-04T11:37:28.325Z,15.20
2018-03-04T11:40:01.574Z,16.30
2018-03-04T11:42:34.865Z,13.63
2018-03-04T11:45:08.143Z,13.73
2018-03-04T11:47:41.430Z,15.30
2018-03-04T11:50:14.708Z,11.37
2018-03-04T11:52:48.741Z,10.23
2018-03-04T11:55:22.040Z,11.90
2018-03-04T11:57:55.298Z,10.13
2018-03-04T12:00:29.357Z,11.13
2018-03-04T12:03:02.613Z,12.67
2018-03-04T12:05:35.895Z,11.47
2018-03-04T12:08:09.158Z,11.97
2018-03-04T12:10:42.562Z,11.03
2018-03-04T12:13:15.868Z,14.90
2018-03-04T12:15:49.238Z,14.73
2018-03-04T12:18:22.546Z,15.57
2018-03-04T12:20:55.834Z,15.40
2018-03-04T12:23:29.138Z,13.40
2018-03-04T12:26:02.420Z,12.77
2018-03-04T12:28:35.814Z,13.13
2018-03-04T12:31:09.104Z,17.20
2018-03-04T12:33:42.449Z,12.97
2018-03-04T12:36:16.521Z,13.23
2018-03-04T12:38:49.868Z,14.50
2018-03-04T12:41:24.088Z,15.90
2018-03-04T12:43:57.356Z,15.03
2018-03-04T12:46:30.618Z,13.97
2018-03-04T12:49:03.914Z,13.67
2018-03-04T12:51:37.166Z,13.53
2018-03-04T12:54:10.468Z,13.33
2018-03-04T12:56:44.490Z,12.20
2018-03-04T12:59:17.823Z,12.80
2018-03-04T13:01:51.075Z,11.77
2018-03-04T13:04:31.484Z,10.70
2018-03-04T13:07:04.734Z,8.90
2018-03-04T13:09:38.033Z,12.33
2018-03-04T13:12:11.321Z,10.57
2018-03-04T13:14:44.596Z,9.40
2018-03-04T13:17:17.860Z,14.93
2018-03-04T13:19:51.131Z,12.63
2018-03-04T13:22:24.412Z,8.53
2018-03-04T13:24:57.654Z,11.00
2018-03-04T13:27:31.714Z,10.60
2018-03-04T13:30:04.953Z,9.73
2018-03-04T13:32:39.013Z,7.90
2018-03-04T13:35:12.257Z,8.20
2018-03-04T13:37:45.555Z,13.13
2018-03-04T13:40:19.588Z,12.67
2018-03-04T13:42:52.870Z,10.67
2018-03-04T13:45:26.894Z,7.90
2018-03-04T13:48:00.190Z,11.23
2018-03-04T13:50:34.223Z,9.30
2018-03-04T13:53:07.509Z,8.03
2018-03-04T13:55:40.762Z,10.67
2018-03-04T13:58:14.037Z,11.10
2018-03-04T14:00:47.297Z,7.40
2018-03-04T14:03:20.581Z,7.43
2018-03-04T14:05:53.878Z,6.63
2018-03-04T14:08:27.170Z,5.80
2018-03-04T14:11:00.419Z,5.57
2018-03-04T14:13:33.698Z,6.50
2018-03-04T14:16:06.962Z,5.23
2018-03-04T14:18:40.269Z,7.00
2018-03-04T14:21:13.516Z,8.70
2018-03-04T14:23:47.585Z,6.00
2018-03-04T14:26:20.846Z,6.07
2018-03-04T14:28:54.140Z,6.90
2018-03-04T14:31:27.420Z,5.90
2018-03-04T14:34:00.713Z,7.00
2018-03-04T14:36:34.758Z,5.10
2018-03-04T14:39:08.034Z,8.33
2018-03-04T14:41:41.293Z,5.63
2018-03-04T14:44:14.677Z,5.17
2018-03-04T14:46:47.956Z,8.43
2018-03-04T14:49:21.246Z,7.40
2018-03-04T14:51:54.524Z,7.73
2018-03-04T14:54:27.809Z,7.97
2018-03-04T14:57:01.086Z,8.77
2018-03-04T14:59:34.362Z,5.37
2018-03-04T15:02:08.408Z,7.13
2018-03-04T15:04:41.660Z,5.93
2018-03-04T15:07:14.951Z,7.03
2018-03-04T15:09:48.236Z,8.63
2018-03-04T15:12:21.530Z,9.30
2018-03-04T15:14:54.789Z,9.63
2018-03-04T15:17:28.078Z,10.13
2018-03-04T15:20:01.334Z,9.10
2018-03-04T15:22:35.383Z,9.73
2018-03-04T15:25:08.641Z,6.93
2018-03-04T15:27:42.697Z,11.77
2018-03-04T15:30:16.002Z,9.70
2018-03-04T15:32:49.258Z,8.40
2018-03-04T15:35:23.307Z,8.83
2018-03-04T15:37:56.605Z,10.03
2018-03-04T15:40:29.861Z,7.90
2018-03-04T15:43:03.154Z,9.20
2018-03-04T15:45:36.400Z,6.07
2018-03-04T15:48:09.702Z,6.97
2018-03-04T15:50:42.962Z,7.77
2018-03-04T15:53:16.312Z,6.40
2018-03-04T15:55:49.591Z,5.57
2018-03-04T15:58:22.855Z,6.43
2018-03-04T16:00:56.126Z,6.20
2018-03-04T16:03:29.394Z,6.03
2018-03-04T16:06:03.445Z,6.43
2018-03-04T16:08:36.726Z,4.37
2018-03-04T16:11:10.014Z,7.60
2018-03-04T16:13:43.284Z,5.13
2018-03-04T16:16:16.548Z,6.47
2018-03-04T16:18:49.833Z,3.77
2018-03-04T16:21:23.122Z,3.83
2018-03-04T16:23:56.389Z,4.50
2018-03-04T16:26:29.665Z,3.30
2018-03-04T16:29:03.683Z,3.50
2018-03-04T16:31:36.965Z,3.20
2018-03-04T16:34:11.018Z,4.30
2018-03-04T16:36:44.277Z,3.17
2018-03-04T16:39:18.336Z,4.87
2018-03-04T16:41:51.589Z,4.00
2018-03-04T16:44:24.862Z,3.73
2018-03-04T16:46:58.907Z,3.40
2018-03-04T16:49:32.165Z,3.30
2018-03-04T16:52:06.210Z,2.73
2018-03-04T16:54:39.482Z,3.13
2018-03-04T16:57:12.754Z,3.23
2018-03-04T16:59:46.066Z,3.30
2018-03-04T17:02:20.105Z,2.67
2018-03-04T17:04:53.358Z,2.90
2018-03-04T17:07:26.652Z,3.47
2018-03-04T17:10:00.673Z,3.57
2018-03-04T17:12:33.990Z,3.40
2018-03-04T17:15:07.242Z,3.20
2018-03-04T17:17:40.545Z,4.00
2018-03-04T17:20:13.805Z,3.23
2018-03-04T17:22:47.845Z,2.83
2018-03-04T17:25:21.946Z,3.43
2018-03-04T17:27:58.857Z,3.10
2018-03-04T17:30:33.954Z,2.60
2018-03-04T17:33:07.460Z,3.03
2018-03-04T17:35:41.605Z,3.53
2018-03-04T17:38:14.955Z,3.63
2018-03-04T17:40:48.380Z,3.83
2018-03-04T17:43:22.721Z,5.20
2018-03-04T17:45:56.014Z,5.73
2018-03-04T17:48:29.296Z,8.03
2018-03-04T17:51:02.541Z,8.23
2018-03-04T17:53:35.789Z,7.33
2018-03-04T17:56:09.069Z,8.43
2018-03-04T17:58:42.319Z,6.73
2018-03-04T18:01:15.590Z,5.83
2018-03-04T18:03:49.646Z,6.43
2018-03-04T18:06:24.425Z,4.90
2018-03-04T18:08:58.452Z,4.20
2018-03-04T18:11:31.743Z,3.93
2018-03-04T18:14:05.013Z,5.30
2018-03-04T18:16:39.039Z,5.30
2018-03-04T18:19:13.110Z,5.10
2018-03-04T18:21:46.386Z,8.57
2018-03-04T18:24:19.655Z,5.67
2018-03-04T18:26:52.909Z,6.80
2018-03-04T18:29:26.184Z,8.60
2018-03-04T18:31:59.469Z,8.63
2018-03-04T18:34:33.585Z,7.60
2018-03-04T18:37:07.564Z,6.80
2018-03-04T18:39:42.304Z,8.60
2018-03-04T18:42:16.892Z,10.03
2018-03-04T18:44:54.300Z,14.03
2018-03-04T18:47:28.305Z,9.90
2018-03-04T18:50:01.594Z,10.07
2018-03-04T18:52:34.861Z,9.80
2018-03-04T18:55:08.124Z,8.57
2018-03-04T18:57:41.393Z,7.97
2018-03-04T19:00:14.653Z,8.93
2018-03-04T19:02:47.942Z,8.57
2018-03-04T19:05:21.194Z,6.80
2018-03-04T19:07:54.475Z,7.40
2018-03-04T19:10:27.724Z,6.47
2018-03-04T19:13:00.996Z,6.30
2018-03-04T19:15:34.241Z,9.40
2018-03-04T19:18:07.522Z,6.43
2018-03-04T19:20:40.765Z,5.90
2018-03-04T19:23:14.037Z,5.17
2018-03-04T19:25:47.278Z,4.63
2018-03-04T19:28:20.552Z,4.73
2018-03-04T19:30:53.809Z,5.33
2018-03-04T19:33:27.074Z,5.50
2018-03-04T19:36:01.090Z,5.43
2018-03-04T19:38:34.384Z,4.83
2018-03-04T19:41:07.630Z,4.57
2018-03-04T19:43:40.905Z,4.03
2018-03-04T19:46:14.167Z,4.80
2018-03-04T19:48:48.207Z,4.37
2018-03-04T19:51:21.463Z,5.73
2018-03-04T19:53:55.508Z,6.43
2018-03-04T19:56:28.757Z,4.53
2018-03-04T19:59:02.051Z,4.60
2018-03-04T20:01:35.289Z,4.37
2018-03-04T20:04:08.571Z,4.57
2018-03-04T20:06:41.846Z,4.80
2018-03-04T20:09:15.877Z,4.73
2018-03-04T20:11:49.154Z,5.50
2018-03-04T20:14:23.170Z,3.93
2018-03-04T20:16:57.218Z,4.93
2018-03-04T20:19:30.464Z,3.90
2018-03-04T20:22:03.724Z,4.27
2018-03-04T20:24:36.980Z,4.17
2018-03-04T20:27:10.264Z,5.33
2018-03-04T20:29:44.309Z,5.37
2018-03-04T20:32:17.585Z,5.40
2018-03-04T20:34:50.835Z,4.53
2018-03-04T20:37:24.202Z,4.10
2018-03-04T20:39:58.219Z,5.27
2018-03-04T20:42:31.530Z,5.53
2018-03-04T20:45:04.766Z,5.40
2018-03-04T20:47:38.038Z,5.40
2018-03-04T20:50:12.094Z,4.73
2018-03-04T20:52:45.342Z,5.60
2018-03-04T20:55:19.374Z,6.87
2018-03-04T20:57:52.622Z,6.23
2018-03-04T21:00:25.890Z,6.70
2018-03-04T21:02:59.177Z,5.83
2018-03-04T21:05:32.429Z,7.07
2018-03-04T21:08:05.687Z,6.30
2018-03-04T21:10:38.949Z,6.57
2018-03-04T21:13:12.232Z,5.57
2018-03-04T21:15:45.473Z,6.30
2018-03-04T21:18:18.750Z,10.23
2018-03-04T21:20:51.998Z,7.77
2018-03-04T21:23:26.039Z,6.67
2018-03-04T21:25:59.289Z,5.73
2018-03-04T21:28:32.568Z,6.03
2018-03-04T21:31:06.570Z,6.23
2018-03-04T21:33:39.843Z,5.20
2018-03-04T21:36:13.134Z,5.90
2018-03-04T21:38:47.142Z,5.63
2018-03-04T21:41:20.913Z,5.53
2018-03-04T21:43:54.933Z,5.63
2018-03-04T21:46:28.974Z,6.43
2018-03-04T21:49:02.246Z,6.77
2018-03-04T21:51:35.529Z,6.47
2018-03-04T21:54:08.769Z,6.27
2018-03-04T21:56:42.046Z,5.90
2018-03-04T21:59:15.298Z,6.27
2018-03-04T22:01:48.568Z,7.37
2018-03-04T22:04:21.830Z,6.30
2018-03-04T22:06:55.127Z,6.77
2018-03-04T22:09:28.370Z,6.00
2018-03-04T22:12:01.633Z,5.97
2018-03-04T22:14:34.901Z,6.10
2018-03-04T22:17:08.146Z,6.80
2018-03-04T22:19:41.431Z,5.90
2018-03-04T22:22:14.699Z,6.90
2018-03-04T22:24:47.962Z,8.53
2018-03-04T22:27:21.229Z,6.97
2018-03-04T22:29:54.509Z,7.57
2018-03-04T22:32:27.754Z,7.50
2018-03-04T22:35:01.032Z,6.93
2018-03-04T22:37:34.373Z,6.37
2018-03-04T22:40:07.628Z,7.63
2018-03-04T22:42:40.910Z,15.27
2018-03-04T22:45:14.950Z,24.43
2018-03-04T22:47:48.225Z,26.33
2018-03-04T22:50:21.514Z,26.53
2018-03-04T22:52:55.570Z,26.30
2018-03-04T22:55:28.812Z,20.30
2018-03-04T22:58:02.879Z,17.47
2018-03-04T23:00:36.118Z,17.00
2018-03-04T23:03:10.158Z,19.00
2018-03-04T23:05:44.122Z,15.90
2018-03-04T23:08:17.427Z,11.90
2018-03-04T23:10:50.682Z,10.77
2018-03-04T23:13:23.980Z,11.00
2018-03-04T23:15:57.225Z,10.43
2018-03-04T23:18:30.505Z,9.50
2018-03-04T23:21:04.534Z,10.60
2018-03-04T23:23:37.834Z,9.33
2018-03-04T23:26:11.088Z,12.03
2018-03-04T23:28:44.369Z,10.33
2018-03-04T23:31:17.649Z,10.80
2018-03-04T23:33:50.918Z,8.63
2018-03-04T23:36:24.184Z,9.23
2018-03-04T23:38:57.432Z,7.83
2018-03-04T23:41:30.705Z,8.07
2018-03-04T23:44:04.002Z,8.57
2018-03-04T23:46:37.289Z,10.53
2018-03-04T23:49:10.541Z,11.10
2018-03-04T23:51:43.826Z,10.90
2018-03-04T23:54:17.078Z,10.40
2018-03-04T23:56:50.363Z,10.70
2018-03-04T23:59:23.624Z,9.90
